Time;durP1;ratioP1;P1;durP2;ratioP2;P2;SDS_P1;SDS_P2;PMS_P1;PMS_P2;Temp;Humidity;BMP_temperature;BMP_pressure;BME280_temperature;BME280_humidity;BME280_pressure;Samples;Min_cycle;Max_cycle;Signal;HPM_P1;HPM_P2
2023/06/12 00:01:31;;;;;;;8.38;5.90;;;;;;;20.59;45.33;101478.56;4843378;29;20073;-77
2023/06/12 00:03:57;;;;;;;8.63;5.85;;;;;;;20.60;47.35;101485.47;4844440;29;20061;-79
2023/06/12 00:06:22;;;;;;;8.38;5.88;;;;;;;20.51;45.83;101477.66;4844613;29;20022;-78
2023/06/12 00:08:48;;;;;;;10.68;6.63;;;;;;;20.55;46.01;101487.72;4844600;29;20036;-78
2023/06/12 00:11:13;;;;;;;9.75;6.28;;;;;;;20.43;46.53;101480.97;4844464;29;20042;-77
2023/06/12 00:13:40;;;;;;;9.30;5.80;;;;;;;20.34;47.77;101480.03;4844477;29;20033;-79
2023/06/12 00:16:06;;;;;;;9.20;5.82;;;;;;;20.41;48.02;101495.19;4844532;29;20082;-78
2023/06/12 00:18:31;;;;;;;11.80;6.43;;;;;;;20.36;47.37;101485.16;4844499;29;20042;-78
2023/06/12 00:20:57;;;;;;;6.93;6.07;;;;;;;20.31;47.07;101487.34;4843747;29;20026;-78
2023/06/12 00:23:22;;;;;;;10.43;6.40;;;;;;;20.30;46.60;101485.72;4844254;29;20069;-77
2023/06/12 00:25:48;;;;;;;10.60;6.38;;;;;;;20.13;48.26;101473.34;4844278;29;20557;-78
2023/06/12 00:28:13;;;;;;;9.75;5.70;;;;;;;20.18;48.18;101492.09;4844353;29;20509;-78
2023/06/12 00:30:39;;;;;;;9.52;6.25;;;;;;;20.04;48.53;101491.56;4844051;29;20038;-77
2023/06/12 00:33:04;;;;;;;10.93;5.82;;;;;;;19.91;47.93;101479.75;4842913;29;20077;-78
2023/06/12 00:35:29;;;;;;;8.07;5.30;;;;;;;19.97;48.29;101487.06;4844258;29;20037;-77
2023/06/12 00:37:55;;;;;;;8.15;5.85;;;;;;;19.91;49.83;101496.31;4843901;29;20163;-78
2023/06/12 00:40:21;;;;;;;10.05;6.13;;;;;;;19.58;49.82;101458.28;4844286;29;20146;-78
2023/06/12 00:42:49;;;;;;;7.85;6.25;;;;;;;19.79;48.54;101496.59;4843981;29;20113;-78
2023/06/12 00:45:16;;;;;;;10.68;5.85;;;;;;;19.83;48.93;101495.34;4843861;29;20045;-78
2023/06/12 00:47:45;;;;;;;8.40;5.95;;;;;;;19.73;50.69;101495.34;4843849;29;20026;-78
2023/06/12 00:50:12;;;;;;;9.80;6.03;;;;;;;19.62;50.11;101474.56;4842242;29;20034;-78
2023/06/12 00:52:44;;;;;;;8.57;5.90;;;;;;;19.52;49.19;101479.75;4843819;29;20475;-78
2023/06/12 00:55:11;;;;;;;8.25;5.90;;;;;;;19.54;49.34;101482.25;4843818;29;20109;-78
2023/06/12 00:57:38;;;;;;;8.85;5.93;;;;;;;19.48;50.46;101483.63;4843717;29;20029;-78
2023/06/12 01:00:06;;;;;;;9.55;6.10;;;;;;;19.44;49.73;101487.47;4843669;29;20082;-77
2023/06/12 01:02:39;;;;;;;12.57;6.28;;;;;;;19.37;50.58;101484.59;4843694;29;20030;-78
2023/06/12 01:05:08;;;;;;;8.38;6.28;;;;;;;19.34;49.75;101494.50;4843553;29;20030;-78
2023/06/12 01:07:43;;;;;;;8.25;5.80;;;;;;;19.34;50.85;101492.72;4843607;29;20038;-78
2023/06/12 01:10:32;;;;;;;8.85;5.95;;;;;;;19.36;49.86;101479.47;4842253;29;20030;-78
2023/06/12 01:12:59;;;;;;;8.10;6.30;;;;;;;19.29;49.92;101494.13;4843368;29;20037;-78
2023/06/12 01:15:24;;;;;;;10.80;6.97;;;;;;;19.28;50.75;101489.84;4843486;29;20041;-78
2023/06/12 01:17:50;;;;;;;8.18;6.43;;;;;;;19.29;50.22;101492.31;4843520;29;20101;-78
2023/06/12 01:20:17;;;;;;;9.90;6.53;;;;;;;19.33;50.51;101492.88;4843351;29;20101;-77
2023/06/12 01:22:53;;;;;;;9.00;6.90;;;;;;;19.28;50.18;101490.66;4843034;29;20033;-78
2023/06/12 01:25:35;;;;;;;8.75;6.78;;;;;;;19.26;50.56;101492.56;4843062;29;20030;-78
2023/06/12 01:28:06;;;;;;;10.70;6.30;;;;;;;19.31;51.16;101489.56;4843100;29;20061;-78
2023/06/12 01:31:02;;;;;;;9.02;6.95;;;;;;;19.27;50.08;101496.00;4843228;29;20103;-78
2023/06/12 01:33:33;;;;;;;8.88;6.72;;;;;;;19.22;50.16;101487.75;4822365;29;20073;-78
2023/06/12 01:36:00;;;;;;;9.20;6.18;;;;;;;19.04;50.84;101466.66;4822824;29;20445;-78
2023/06/12 01:38:29;;;;;;;10.07;6.85;;;;;;;19.19;50.88;101494.09;4822951;29;20395;-78
2023/06/12 01:40:55;;;;;;;11.80;6.80;;;;;;;19.10;51.03;101482.66;4822769;29;20046;-78
2023/06/12 01:43:23;;;;;;;9.07;6.90;;;;;;;19.05;51.11;101494.47;4822599;29;20031;-78
2023/06/12 01:45:48;;;;;;;10.70;6.95;;;;;;;19.00;51.46;101500.13;4822586;29;20079;-77
2023/06/12 01:48:14;;;;;;;8.98;6.93;;;;;;;18.82;52.23;101472.94;4822542;29;20030;-78
2023/06/12 01:50:40;;;;;;;10.93;7.45;;;;;;;18.84;52.02;101494.56;4822714;29;20491;-78
2023/06/12 01:53:07;;;;;;;10.70;6.47;;;;;;;18.80;53.18;101487.97;4822338;29;20537;-78
2023/06/12 01:55:33;;;;;;;10.05;6.47;;;;;;;18.72;53.79;101490.41;4822345;29;20476;-78
2023/06/12 01:57:59;;;;;;;11.73;7.38;;;;;;;18.62;53.42;101498.19;4822319;29;20054;-77
2023/06/12 02:00:24;;;;;;;10.57;7.25;;;;;;;18.48;54.18;101483.69;4822541;29;20038;-78
2023/06/12 02:02:55;;;;;;;10.13;6.70;;;;;;;18.38;54.89;101474.13;4822370;29;20046;-78
2023/06/12 02:05:21;;;;;;;11.23;6.90;;;;;;;18.41;54.30;101479.13;4822333;29;20479;-78
2023/06/12 02:07:46;;;;;;;9.43;6.72;;;;;;;18.45;55.90;101509.28;4822349;29;20131;-79
2023/06/12 02:10:11;;;;;;;10.20;7.30;;;;;;;18.39;55.52;101505.41;4832469;29;20034;-78
2023/06/12 02:12:36;;;;;;;9.63;6.63;;;;;;;18.33;55.83;101505.91;4842450;29;20091;-78
2023/06/12 02:15:02;;;;;;;10.85;6.72;;;;;;;18.17;56.35;101482.03;4842425;29;20034;-78
2023/06/12 02:17:28;;;;;;;8.48;6.93;;;;;;;17.98;57.05;101467.06;4842480;29;20037;-78
2023/06/12 02:19:53;;;;;;;8.85;6.78;;;;;;;18.10;57.23;101496.59;4841121;29;20056;-78
2023/06/12 02:22:19;;;;;;;9.15;7.10;;;;;;;17.93;57.58;101492.75;4842390;29;20041;-77
2023/06/12 02:24:44;;;;;;;8.60;6.57;;;;;;;17.90;58.39;101506.09;4840709;29;20087;-78
2023/06/12 02:27:10;;;;;;;11.25;7.40;;;;;;;17.76;59.33;101502.81;4842341;29;20030;-79
2023/06/12 02:29:35;;;;;;;9.43;7.20;;;;;;;17.72;60.18;101490.97;4842167;29;20119;-79
2023/06/12 02:32:00;;;;;;;8.70;6.25;;;;;;;17.71;59.73;101499.78;4842226;29;20111;-78
2023/06/12 02:34:26;;;;;;;9.23;7.18;;;;;;;17.61;60.82;101498.84;4842110;29;20030;-78
2023/06/12 02:36:51;;;;;;;10.40;7.55;;;;;;;17.51;61.81;101492.72;4840983;29;20040;-78
2023/06/12 02:39:17;;;;;;;9.98;7.43;;;;;;;17.44;61.89;101492.38;4841685;29;20109;-78
2023/06/12 02:41:45;;;;;;;8.85;7.07;;;;;;;17.34;61.61;101473.19;4842248;29;20057;-78
2023/06/12 02:44:10;;;;;;;11.73;7.30;;;;;;;17.33;61.69;101483.75;4841632;29;20367;-77
2023/06/12 02:46:50;;;;;;;11.18;7.45;;;;;;;17.26;60.79;101483.41;4841962;29;20086;-78
2023/06/12 02:49:16;;;;;;;11.63;7.85;;;;;;;17.23;61.95;101495.91;4841897;29;20033;-77
2023/06/12 02:51:41;;;;;;;10.70;7.68;;;;;;;17.17;62.83;101499.81;4841870;29;20038;-78
2023/06/12 02:54:06;;;;;;;10.23;7.35;;;;;;;17.20;61.16;101494.34;4841784;29;20049;-78
2023/06/12 02:56:32;;;;;;;11.95;8.18;;;;;;;17.03;63.30;101493.09;4841861;29;20387;-77
2023/06/12 02:58:57;;;;;;;9.73;7.45;;;;;;;17.01;63.21;101497.63;4841547;29;20084;-78
2023/06/12 03:01:23;;;;;;;11.52;7.57;;;;;;;16.95;64.45;101490.25;4842044;29;20034;-78
2023/06/12 03:03:50;;;;;;;11.77;7.97;;;;;;;16.83;64.44;101476.41;4841871;29;20022;-78
2023/06/12 03:06:16;;;;;;;11.38;7.65;;;;;;;16.78;65.75;101488.97;4841723;29;20451;-78
2023/06/12 03:08:41;;;;;;;10.80;7.75;;;;;;;16.63;65.64;101462.31;4841726;29;20033;-79
2023/06/12 03:11:07;;;;;;;13.15;8.55;;;;;;;16.76;65.34;101483.06;4841966;29;20501;-79
2023/06/12 03:13:32;;;;;;;12.43;7.80;;;;;;;16.62;65.52;101476.28;4841724;29;20026;-79
2023/06/12 03:15:58;;;;;;;10.85;7.97;;;;;;;16.41;65.17;101430.19;4841665;29;20178;-79
2023/06/12 03:18:23;;;;;;;12.88;8.23;;;;;;;16.65;65.48;101485.66;4859257;29;20457;-78
2023/06/12 03:20:49;;;;;;;10.00;8.10;;;;;;;16.40;65.13;101444.19;4858466;29;20119;-79
2023/06/12 03:23:15;;;;;;;12.63;8.30;;;;;;;16.65;65.29;101490.88;4860063;29;20505;-78
2023/06/12 03:25:40;;;;;;;11.27;8.38;;;;;;;16.62;65.25;101478.91;4859995;29;20029;-79
2023/06/12 03:28:06;;;;;;;12.80;8.27;;;;;;;16.61;65.26;101486.81;4860110;29;20097;-79
2023/06/12 03:30:31;;;;;;;10.38;8.30;;;;;;;16.63;65.53;101485.78;4860057;29;20022;-79
2023/06/12 03:32:57;;;;;;;12.35;8.70;;;;;;;16.71;63.98;101494.78;4860280;29;20500;-79
2023/06/12 03:35:23;;;;;;;11.93;8.38;;;;;;;16.72;64.90;101491.25;4859892;29;20053;-79
2023/06/12 03:37:49;;;;;;;12.52;8.88;;;;;;;16.77;65.54;101492.53;4858692;29;20466;-79
2023/06/12 03:40:14;;;;;;;14.23;9.35;;;;;;;16.90;63.51;101497.63;4859983;29;20125;-78
2023/06/12 03:42:39;;;;;;;10.32;8.35;;;;;;;16.84;65.41;101490.28;4860001;29;20036;-79
2023/06/12 03:45:05;;;;;;;9.73;8.23;;;;;;;16.84;63.74;101504.16;4858326;29;20053;-79
2023/06/12 03:47:31;;;;;;;11.18;8.20;;;;;;;16.80;64.98;101507.13;4859762;29;20029;-79
2023/06/12 03:49:56;;;;;;;10.32;7.78;;;;;;;16.88;64.60;101509.97;4859698;29;20062;-79
2023/06/12 03:52:22;;;;;;;11.98;8.48;;;;;;;16.54;63.32;101446.56;4860144;29;20093;-79
2023/06/12 03:54:47;;;;;;;10.65;8.07;;;;;;;16.89;63.65;101507.22;4860209;29;20120;-79
2023/06/12 03:57:12;;;;;;;12.95;9.32;;;;;;;16.77;65.45;101516.00;4863127;29;20416;-79
2023/06/12 03:59:38;;;;;;;11.57;8.43;;;;;;;16.64;66.35;101502.25;4863111;29;20065;-78
2023/06/12 04:02:03;;;;;;;11.32;8.00;;;;;;;16.66;65.70;101481.25;4861817;29;20084;-79
2023/06/12 04:04:29;;;;;;;12.43;8.18;;;;;;;16.64;65.50;101494.44;4863153;29;20049;-79
2023/06/12 04:06:54;;;;;;;10.10;7.82;;;;;;;16.62;67.08;101504.97;4863101;29;20030;-78
2023/06/12 04:09:21;;;;;;;12.52;8.15;;;;;;;16.61;67.54;101505.06;4863124;29;20040;-75
2023/06/12 04:11:49;;;;;;;11.32;8.20;;;;;;;16.69;68.12;101523.59;4862737;29;20098;-78
2023/06/12 04:14:14;;;;;;;12.02;8.45;;;;;;;16.59;67.71;101483.50;4863353;29;20033;-78
2023/06/12 04:16:39;;;;;;;12.00;8.30;;;;;;;16.80;68.63;101527.97;4863168;29;20434;-80
2023/06/12 04:19:05;;;;;;;10.93;8.23;;;;;;;16.76;67.91;101500.50;4863057;29;20033;-79
2023/06/12 04:21:35;;;;;;;12.73;8.18;;;;;;;17.02;67.72;101533.19;4862956;29;20025;-79
2023/06/12 04:24:02;;;;;;;11.57;8.45;;;;;;;17.19;66.72;101531.84;4863037;29;20033;-79
2023/06/12 04:26:28;;;;;;;11.65;8.73;;;;;;;17.34;64.59;101532.41;4861222;29;20141;-79
2023/06/12 04:28:54;;;;;;;12.57;8.82;;;;;;;17.47;64.07;101527.84;4862981;29;20537;-79
2023/06/12 04:31:20;;;;;;;10.93;8.52;;;;;;;17.54;64.11;101526.41;4862749;29;20076;-79
2023/06/12 04:33:46;;;;;;;12.98;8.43;;;;;;;17.55;65.68;101514.19;4862730;29;20029;-79
2023/06/12 04:36:17;;;;;;;11.82;8.38;;;;;;;17.73;63.26;101523.97;4862377;29;20026;-79
2023/06/12 04:38:42;;;;;;;11.20;8.07;;;;;;;18.01;62.45;101538.22;4862706;29;20049;-79
2023/06/12 04:41:07;;;;;;;9.05;8.10;;;;;;;18.06;61.37;101522.97;4862429;29;20512;-79
2023/06/12 04:43:33;;;;;;;11.52;8.80;;;;;;;18.19;61.22;101530.63;4862435;29;20057;-79
2023/06/12 04:45:58;;;;;;;10.32;8.15;;;;;;;18.17;62.25;101531.69;4862486;29;20371;-79
2023/06/12 04:48:24;;;;;;;11.68;7.97;;;;;;;18.05;62.35;101518.69;4862556;29;20097;-78
2023/06/12 04:50:53;;;;;;;11.30;8.25;;;;;;;18.04;63.48;101490.09;4860896;29;20080;-78
2023/06/12 04:53:18;;;;;;;19.08;8.77;;;;;;;18.17;62.15;101524.69;4862451;29;20057;-78
2023/06/12 04:55:50;;;;;;;11.20;8.05;;;;;;;18.35;61.78;101535.38;4862206;29;20061;-77
2023/06/12 04:58:17;;;;;;;12.70;8.57;;;;;;;18.33;62.11;101534.69;4862358;29;20021;-78
2023/06/12 05:00:44;;;;;;;15.07;8.98;;;;;;;18.40;61.69;101521.94;4862196;29;20498;-77
2023/06/12 05:03:10;;;;;;;11.38;8.52;;;;;;;18.51;60.65;101482.59;4860794;29;20057;-78
2023/06/12 05:05:35;;;;;;;12.82;9.23;;;;;;;19.14;59.46;101531.16;4861773;29;20065;-78
2023/06/12 05:08:01;;;;;;;11.57;9.15;;;;;;;19.26;59.21;101517.94;4862084;29;20060;-80
2023/06/12 05:10:26;;;;;;;13.10;9.50;;;;;;;19.56;58.88;101533.56;4862143;29;20065;-78
2023/06/12 05:12:51;;;;;;;10.85;9.57;;;;;;;19.80;57.16;101537.56;4861829;29;20509;-78
2023/06/12 05:15:17;;;;;;;11.00;8.27;;;;;;;20.06;56.52;101536.03;4862125;29;20071;-78
2023/06/12 05:17:42;;;;;;;12.88;8.52;;;;;;;20.18;56.11;101520.94;4861921;29;20037;-77
2023/06/12 05:20:10;;;;;;;10.23;8.43;;;;;;;20.63;54.18;101537.66;4861856;29;20109;-78
2023/06/12 05:22:36;;;;;;;12.38;8.57;;;;;;;20.91;54.49;101525.38;4860355;29;20030;-77
2023/06/12 05:25:03;;;;;;;10.27;8.40;;;;;;;21.70;51.74;101531.75;4861707;29;20102;-77
2023/06/12 05:27:29;;;;;;;12.35;8.38;;;;;;;22.30;49.07;101516.91;4861355;29;20133;-77
2023/06/12 05:29:55;;;;;;;12.63;8.77;;;;;;;22.85;47.21;101492.81;4861699;29;20053;-78
2023/06/12 05:32:20;;;;;;;13.23;8.32;;;;;;;23.90;45.48;101532.66;4859421;29;20026;-76
2023/06/12 05:34:45;;;;;;;12.57;8.65;;;;;;;24.68;43.51;101530.16;4862261;29;20040;-78
2023/06/12 05:37:11;;;;;;;12.02;8.50;;;;;;;25.38;42.48;101538.03;4861453;29;20036;-78
2023/06/12 05:39:36;;;;;;;11.02;8.13;;;;;;;26.59;40.18;101531.78;4861474;29;20094;-77
2023/06/12 05:42:01;;;;;;;15.05;7.80;;;;;;;27.28;38.51;101526.06;4861251;29;20371;-77
2023/06/12 05:44:27;;;;;;;12.18;7.20;;;;;;;28.01;37.32;101511.56;4861453;29;20068;-77
2023/06/12 05:46:52;;;;;;;14.70;8.20;;;;;;;28.53;35.19;101492.47;4844643;29;20064;-79
2023/06/12 05:49:18;;;;;;;10.20;7.80;;;;;;;28.64;35.32;101517.66;4861442;29;20112;-78
2023/06/12 05:51:43;;;;;;;9.90;7.03;;;;;;;29.01;32.93;101467.69;4861326;29;20148;-77
2023/06/12 05:54:09;;;;;;;11.02;7.28;;;;;;;29.39;32.00;101505.13;4860931;29;20045;-80
2023/06/12 05:56:34;;;;;;;10.90;7.80;;;;;;;29.29;32.31;101513.53;4861063;29;20040;-78
2023/06/12 05:59:00;;;;;;;9.73;6.63;;;;;;;29.61;31.63;101522.59;4861101;29;20033;-79
2023/06/12 06:01:25;;;;;;;9.38;6.95;;;;;;;29.74;30.05;101487.16;4861045;29;20132;-78
2023/06/12 06:03:51;;;;;;;10.18;6.32;;;;;;;29.94;30.62;101516.41;4861133;29;20040;-78
2023/06/12 06:06:16;;;;;;;9.05;6.70;;;;;;;29.84;32.41;101495.53;4860729;29;20109;-78
2023/06/12 06:08:42;;;;;;;10.80;6.43;;;;;;;30.94;29.94;101495.56;4861488;29;20036;-78
2023/06/12 06:11:08;;;;;;;11.07;6.80;;;;;;;31.30;28.86;101465.56;4860684;29;20026;-81
2023/06/12 06:13:33;;;;;;;10.93;6.18;;;;;;;31.62;29.45;101519.69;4861630;29;20044;-80
2023/06/12 06:15:59;;;;;;;9.05;6.65;;;;;;;31.26;28.70;101507.88;4861270;29;20029;-79
2023/06/12 06:18:24;;;;;;;9.93;6.50;;;;;;;30.52;29.61;101509.28;4860517;29;20507;-77
2023/06/12 06:20:50;;;;;;;10.73;6.22;;;;;;;29.99;31.00;101508.63;4861076;29;20030;-76
2023/06/12 06:23:16;;;;;;;8.82;6.05;;;;;;;30.82;29.39;101527.44;4860864;29;20474;-79
2023/06/12 06:25:41;;;;;;;8.45;6.93;;;;;;;31.48;29.02;101507.53;4860849;29;20485;-77
2023/06/12 06:28:06;;;;;;;11.55;6.20;;;;;;;31.92;26.94;101501.16;4860776;29;20033;-77
2023/06/12 06:30:32;;;;;;;11.43;6.03;;;;;;;31.91;26.32;101507.53;4859503;29;20040;-77
2023/06/12 06:32:57;;;;;;;8.60;5.75;;;;;;;31.32;27.99;101530.22;4861002;29;20090;-78
2023/06/12 06:35:23;;;;;;;11.20;6.18;;;;;;;31.49;27.78;101538.50;4860968;29;20045;-78
2023/06/12 06:37:49;;;;;;;8.30;5.97;;;;;;;31.74;27.68;101523.28;4860745;29;20159;-79
2023/06/12 06:40:14;;;;;;;9.45;6.07;;;;;;;32.06;26.45;101525.91;4860733;29;20486;-75
2023/06/12 06:42:41;;;;;;;9.13;5.82;;;;;;;32.11;26.94;101507.31;4860600;29;20032;-78
2023/06/12 06:45:07;;;;;;;11.23;6.60;;;;;;;32.16;26.47;101521.66;4860682;29;20051;-77
2023/06/12 06:47:36;;;;;;;9.27;5.90;;;;;;;32.01;26.58;101526.56;4859483;29;20478;-77
2023/06/12 06:50:01;;;;;;;10.55;5.93;;;;;;;31.59;27.75;101526.31;4859354;29;20042;-78
2023/06/12 06:52:27;;;;;;;9.63;6.40;;;;;;;32.02;27.49;101525.50;4860425;29;20029;-77
2023/06/12 06:54:52;;;;;;;7.68;5.20;;;;;;;32.99;26.18;101517.56;4860380;29;20108;-77
2023/06/12 06:57:18;;;;;;;10.32;6.10;;;;;;;33.74;25.72;101525.03;4860205;29;20030;-77
2023/06/12 06:59:43;;;;;;;10.10;5.90;;;;;;;34.00;25.18;101504.97;4860471;29;20049;-77
2023/06/12 07:02:09;;;;;;;9.18;5.88;;;;;;;34.38;24.03;101524.03;4860367;29;20029;-77
2023/06/12 07:04:34;;;;;;;11.63;5.47;;;;;;;33.97;24.30;101510.81;4860373;29;20041;-78
2023/06/12 07:06:59;;;;;;;9.50;5.90;;;;;;;33.62;24.50;101517.78;4860528;29;20030;-77
2023/06/12 07:09:25;;;;;;;8.65;5.78;;;;;;;32.94;26.27;101510.25;4860395;29;20517;-77
2023/06/12 07:11:51;;;;;;;8.60;5.53;;;;;;;33.21;25.36;101531.22;4860116;29;20038;-76
2023/06/12 07:14:16;;;;;;;7.20;5.60;;;;;;;33.16;25.25;101513.19;4860155;29;20029;-79
2023/06/12 07:16:42;;;;;;;8.98;5.20;;;;;;;33.45;24.44;101518.75;4860202;29;20471;-77
2023/06/12 07:19:07;;;;;;;9.43;5.93;;;;;;;33.26;24.59;101500.06;4860360;29;20073;-76
2023/06/12 07:21:32;;;;;;;10.10;6.13;;;;;;;33.47;25.32;101512.09;4860320;29;20040;-77
2023/06/12 07:23:58;;;;;;;8.40;5.85;;;;;;;33.35;25.60;101514.78;4860290;29;20065;-77
2023/06/12 07:26:24;;;;;;;8.30;5.97;;;;;;;33.24;25.41;101499.47;4858816;29;20041;-78
2023/06/12 07:28:49;;;;;;;8.77;6.00;;;;;;;33.62;26.10;101501.72;4860092;29;20040;-78
2023/06/12 07:31:15;;;;;;;7.45;6.07;;;;;;;34.69;23.89;101512.03;4862956;29;20029;-77
2023/06/12 07:33:41;;;;;;;8.25;6.15;;;;;;;34.58;23.73;101501.34;4863798;29;20170;-78
2023/06/12 07:36:06;;;;;;;8.30;5.85;;;;;;;33.96;25.39;101482.41;4863930;29;20458;-79
2023/06/12 07:38:32;;;;;;;9.13;6.03;;;;;;;34.42;24.59;101476.94;4863819;29;20037;-76
2023/06/12 07:40:57;;;;;;;8.27;5.88;;;;;;;34.08;24.00;101496.59;4863641;29;20154;-80
2023/06/12 07:43:22;;;;;;;8.30;5.68;;;;;;;32.61;26.82;101515.19;4863401;29;20488;-79
2023/06/12 07:45:48;;;;;;;9.40;5.57;;;;;;;31.32;28.05;101516.88;4863663;29;20037;-79
2023/06/12 07:48:13;;;;;;;9.18;6.25;;;;;;;29.65;29.39;101509.69;4863514;29;20057;-78
2023/06/12 07:50:39;;;;;;;7.20;5.85;;;;;;;28.56;32.09;101517.81;4863471;29;20470;-77
2023/06/12 07:53:05;;;;;;;11.77;6.95;;;;;;;27.72;32.23;101516.06;4863457;29;20029;-77
2023/06/12 07:55:31;;;;;;;8.68;6.32;;;;;;;27.33;35.21;101515.69;4863632;29;20436;-77
2023/06/12 07:57:57;;;;;;;8.18;6.38;;;;;;;27.13;34.93;101520.81;4863229;29;20094;-77
2023/06/12 08:00:24;;;;;;;8.98;6.70;;;;;;;27.07;35.70;101517.09;4862343;29;20110;-78
2023/06/12 08:02:59;;;;;;;10.25;6.75;;;;;;;26.84;35.17;101503.13;4863279;29;20055;-77
2023/06/12 08:05:25;;;;;;;11.73;6.80;;;;;;;26.81;35.96;101514.94;4863111;29;20545;-75
2023/06/12 08:07:51;;;;;;;11.93;6.85;;;;;;;26.48;35.81;101500.47;4861545;29;20477;-75
2023/06/12 08:10:16;;;;;;;9.23;6.15;;;;;;;26.43;36.45;101510.78;4863708;29;20028;-78
2023/06/12 08:12:42;;;;;;;10.13;6.53;;;;;;;26.37;36.24;101525.59;4862585;29;20467;-77
2023/06/12 08:15:08;;;;;;;11.27;6.70;;;;;;;26.21;36.97;101504.56;4863762;29;20025;-78
2023/06/12 08:17:36;;;;;;;9.10;6.60;;;;;;;26.15;36.89;101500.00;4861887;29;20037;-78
2023/06/12 08:20:08;;;;;;;9.88;6.97;;;;;;;25.99;36.41;101485.94;4861648;29;20030;-78
2023/06/12 08:22:33;;;;;;;8.90;6.75;;;;;;;26.03;36.32;101510.22;4863079;29;20034;-77
2023/06/12 08:25:00;;;;;;;9.40;6.32;;;;;;;26.00;36.32;101513.22;4854518;29;20098;-76
2023/06/12 08:27:26;;;;;;;9.43;6.72;;;;;;;26.04;37.70;101509.22;4828522;29;20030;-79
2023/06/12 08:29:51;;;;;;;7.97;6.50;;;;;;;26.02;37.78;101490.03;4844600;29;20333;-80
2023/06/12 08:32:17;;;;;;;9.75;6.28;;;;;;;26.29;36.90;101513.25;4844363;29;20034;-78
2023/06/12 08:34:42;;;;;;;10.93;5.82;;;;;;;26.40;37.13;101513.81;4844535;29;20034;-81
2023/06/12 08:37:07;;;;;;;8.90;6.00;;;;;;;26.54;37.24;101507.66;4844343;29;20057;-81
2023/06/12 08:39:33;;;;;;;9.10;6.35;;;;;;;26.51;36.46;101503.56;4844387;29;20041;-80
2023/06/12 08:42:04;;;;;;;8.65;6.13;;;;;;;26.25;36.78;101495.25;4843562;29;20026;-77
2023/06/12 08:44:31;;;;;;;10.45;6.90;;;;;;;26.30;36.44;101512.22;4843823;29;20034;-79
2023/06/12 08:46:59;;;;;;;10.63;6.38;;;;;;;26.19;36.42;101475.63;4844155;29;20036;-79
2023/06/12 08:49:25;;;;;;;10.60;6.55;;;;;;;26.44;35.89;101489.41;4844244;29;20113;-78
2023/06/12 08:51:51;;;;;;;12.73;6.40;;;;;;;26.56;36.05;101500.38;4842815;29;20124;-79
2023/06/12 08:54:18;;;;;;;8.05;6.05;;;;;;;26.68;36.68;101495.41;4844088;29;20133;-80
2023/06/12 08:56:47;;;;;;;8.90;6.03;;;;;;;26.63;36.82;101466.00;4847271;29;20031;-79
2023/06/12 08:59:17;;;;;;;9.73;6.32;;;;;;;26.78;37.26;101482.69;4862783;29;20029;-78
2023/06/12 09:01:43;;;;;;;8.60;6.05;;;;;;;26.98;37.44;101498.81;4862486;29;20088;-79
2023/06/12 09:04:26;;;;;;;8.50;6.13;;;;;;;27.04;36.68;101488.31;4862409;29;20451;-77
2023/06/12 09:07:01;;;;;;;7.72;5.90;;;;;;;27.18;36.14;101499.88;4858640;29;20041;-79
2023/06/12 09:09:35;;;;;;;9.38;6.07;;;;;;;27.20;35.47;101494.38;4844464;29;20474;-79
2023/06/12 09:12:00;;;;;;;7.97;5.97;;;;;;;27.15;33.98;101487.81;4843932;29;20113;-79
2023/06/12 09:14:25;;;;;;;8.15;6.18;;;;;;;27.01;34.45;101477.22;4842150;29;20129;-78
2023/06/12 09:16:51;;;;;;;8.35;5.80;;;;;;;27.04;34.45;101485.66;4843784;29;20028;-79
2023/06/12 09:19:16;;;;;;;8.95;5.85;;;;;;;27.07;34.16;101482.63;4843488;29;20471;-79
2023/06/12 09:21:46;;;;;;;7.00;5.93;;;;;;;27.06;35.38;101462.44;4843509;29;20368;-79
2023/06/12 09:24:15;;;;;;;9.45;6.32;;;;;;;27.26;34.89;101477.69;4843371;29;20038;-79
2023/06/12 09:26:42;;;;;;;8.90;5.45;;;;;;;27.06;34.19;101446.53;4843600;29;20049;-79
2023/06/12 09:29:07;;;;;;;7.50;5.15;;;;;;;27.28;34.30;101476.50;4842941;29;20037;-79
2023/06/12 09:32:04;;;;;;;9.40;5.78;;;;;;;27.18;33.94;101461.91;4843442;29;20038;-79
2023/06/12 09:34:50;;;;;;;10.35;5.80;;;;;;;26.83;34.76;101414.03;4858183;29;20122;-78
2023/06/12 09:37:44;;;;;;;8.27;5.45;;;;;;;27.05;34.80;101470.59;4862479;29;20021;-79
2023/06/12 09:40:13;;;;;;;7.38;5.60;;;;;;;26.91;34.95;101472.22;4860747;29;20542;-77
2023/06/12 09:42:40;;;;;;;9.50;5.60;;;;;;;26.85;35.08;101468.50;4862215;29;20087;-77
2023/06/12 09:45:13;;;;;;;7.55;5.65;;;;;;;26.95;35.17;101459.44;4861326;29;20048;-78
2023/06/12 09:47:41;;;;;;;8.82;5.45;;;;;;;26.96;34.45;101461.91;4861542;29;20021;-77
2023/06/12 09:50:06;;;;;;;8.00;5.50;;;;;;;27.15;35.55;101471.91;4859932;29;20124;-78
2023/06/12 09:52:32;;;;;;;8.13;6.00;;;;;;;27.01;33.03;101450.72;4860535;29;20102;-78
2023/06/12 09:54:58;;;;;;;9.30;5.50;;;;;;;27.19;35.04;101476.81;4861234;29;20025;-78
2023/06/12 09:57:25;;;;;;;9.50;6.10;;;;;;;27.54;36.30;101469.78;4861331;29;20081;-78
2023/06/12 09:59:58;;;;;;;7.65;5.22;;;;;;;27.61;34.48;101458.19;4860789;29;20474;-78
2023/06/12 10:02:23;;;;;;;8.43;5.47;;;;;;;27.63;34.04;101455.31;4861208;29;20116;-79
2023/06/12 10:05:05;;;;;;;9.05;5.57;;;;;;;27.72;33.08;101473.59;4861157;29;20120;-78
2023/06/12 10:07:40;;;;;;;7.55;5.50;;;;;;;27.82;33.45;101467.13;4860805;29;20030;-78
2023/06/12 10:10:07;;;;;;;8.55;5.80;;;;;;;27.87;32.85;101470.03;4860786;29;20108;-78
2023/06/12 10:12:34;;;;;;;9.65;5.03;;;;;;;28.01;34.05;101475.22;4861007;29;20068;-77
2023/06/12 10:15:03;;;;;;;9.25;5.45;;;;;;;27.87;31.99;101467.38;4860566;29;20037;-78
2023/06/12 10:17:29;;;;;;;9.82;6.03;;;;;;;27.74;32.88;101459.34;4860733;29;20029;-78
2023/06/12 10:19:56;;;;;;;8.02;5.95;;;;;;;27.84;33.17;101447.34;4860780;29;20120;-78
2023/06/12 10:22:22;;;;;;;8.00;5.32;;;;;;;28.07;33.49;101468.31;4844421;29;20034;-79
2023/06/12 10:24:48;;;;;;;8.02;5.70;;;;;;;28.15;33.27;101462.84;4860625;29;20041;-78
2023/06/12 10:27:15;;;;;;;9.48;5.78;;;;;;;28.36;33.76;101458.47;4860579;29;20101;-78
2023/06/12 10:29:40;;;;;;;8.02;6.10;;;;;;;28.17;33.30;101452.03;4859383;29;20029;-79
2023/06/12 10:32:10;;;;;;;10.27;5.82;;;;;;;27.94;32.93;101437.22;4860587;29;20025;-78
2023/06/12 10:34:43;;;;;;;8.23;5.77;;;;;;;27.97;33.28;101454.56;4860304;29;20033;-79
2023/06/12 10:37:23;;;;;;;7.72;5.63;;;;;;;28.05;33.96;101458.91;4859295;29;20703;-78
2023/06/12 10:40:20;;;;;;;9.73;6.30;;;;;;;27.71;33.51;101418.06;4859158;29;20038;-79
2023/06/12 10:43:03;;;;;;;11.70;5.97;;;;;;;27.84;33.84;101436.75;4860522;29;20493;-79
2023/06/12 10:45:30;;;;;;;7.57;6.00;;;;;;;28.13;33.55;101456.09;4860227;29;20033;-79
2023/06/12 10:48:10;;;;;;;7.55;5.47;;;;;;;28.11;33.12;101456.25;4860377;29;20037;-79
2023/06/12 10:50:40;;;;;;;7.15;5.82;;;;;;;28.18;32.29;101443.84;4860574;29;20061;-79
2023/06/12 10:53:12;;;;;;;9.90;5.47;;;;;;;28.50;33.43;101442.34;4860266;29;20035;-79
2023/06/12 10:55:38;;;;;;;8.25;6.07;;;;;;;28.43;32.03;101438.88;4860398;29;20482;-78
2023/06/12 10:58:11;;;;;;;11.15;5.65;;;;;;;28.48;33.47;101433.78;4843020;29;20051;-79
2023/06/12 11:00:48;;;;;;;9.30;5.78;;;;;;;28.44;33.06;101407.81;4860056;29;20045;-79
2023/06/12 11:03:33;;;;;;;10.30;5.97;;;;;;;28.43;33.22;101422.94;4860125;29;20090;-81
2023/06/12 11:06:12;;;;;;;9.32;6.47;;;;;;;28.30;33.66;101412.25;4843448;29;20028;-78
2023/06/12 11:08:38;;;;;;;8.13;6.55;;;;;;;28.47;33.64;101423.34;4860222;29;20083;-79
2023/06/12 11:11:07;;;;;;;8.52;5.68;;;;;;;28.49;32.89;101438.06;4860047;29;20029;-78
2023/06/12 11:13:33;;;;;;;10.00;6.50;;;;;;;28.49;32.43;101430.09;4860086;29;20029;-79
2023/06/12 11:15:58;;;;;;;9.63;6.35;;;;;;;28.58;33.52;101436.88;4859966;29;20036;-79
2023/06/12 11:18:24;;;;;;;8.13;5.55;;;;;;;28.73;33.25;101435.91;4860209;29;20026;-79
2023/06/12 11:20:54;;;;;;;8.93;5.85;;;;;;;28.83;31.55;101429.16;4860100;29;20026;-79
2023/06/12 11:23:27;;;;;;;6.88;5.20;;;;;;;29.06;32.26;101430.66;4860210;29;20034;-79